createdAt,value
2019-02-09T00:02:08.352Z,5.37
2019-02-09T00:04:38.211Z,6.00
2019-02-09T00:07:08.159Z,5.72
2019-02-09T00:09:38.105Z,8.35
2019-02-09T00:12:07.916Z,7.22
2019-02-09T00:14:37.750Z,5.45
2019-02-09T00:17:07.630Z,5.33
2019-02-09T00:19:38.436Z,5.62
2019-02-09T00:22:09.496Z,5.90
2019-02-09T00:24:39.450Z,6.63
2019-02-09T00:27:21.468Z,8.08
2019-02-09T00:29:54.126Z,6.03
2019-02-09T00:32:24.031Z,6.95
2019-02-09T00:34:53.869Z,5.62
2019-02-09T00:37:23.974Z,5.70
2019-02-09T00:39:53.782Z,6.42
2019-02-09T00:42:23.681Z,5.42
2019-02-09T00:44:53.492Z,6.42
2019-02-09T00:47:23.398Z,6.95
2019-02-09T00:49:53.334Z,7.85
2019-02-09T00:52:23.152Z,5.93
2019-02-09T00:54:53.070Z,5.70
2019-02-09T00:57:22.869Z,6.63
2019-02-09T00:59:54.127Z,5.75
2019-02-09T01:02:24.312Z,5.60
2019-02-09T01:04:55.155Z,5.17
2019-02-09T01:07:25.023Z,6.65
2019-02-09T01:09:55.949Z,5.55
2019-02-09T01:12:25.816Z,4.92
2019-02-09T01:14:55.649Z,6.70
2019-02-09T01:17:25.559Z,6.20
2019-02-09T01:19:55.550Z,6.70
2019-02-09T01:22:25.495Z,5.92
2019-02-09T01:24:55.281Z,6.05
2019-02-09T01:27:25.215Z,6.12
2019-02-09T01:30:02.091Z,6.20
2019-02-09T01:32:26.734Z,5.42
2019-02-09T01:34:56.616Z,6.95
2019-02-09T01:37:26.444Z,6.95
2019-02-09T01:39:56.323Z,6.62
2019-02-09T01:42:26.137Z,5.47
2019-02-09T01:44:55.943Z,6.60
2019-02-09T01:47:25.793Z,6.47
2019-02-09T01:49:55.596Z,5.78
2019-02-09T01:52:25.421Z,6.47
2019-02-09T01:54:55.304Z,6.53
2019-02-09T01:57:25.488Z,6.87
2019-02-09T01:59:58.401Z,7.92
2019-02-09T02:02:28.273Z,7.30
2019-02-09T02:04:58.206Z,6.95
2019-02-09T02:07:28.073Z,6.62
2019-02-09T02:09:57.843Z,7.30
2019-02-09T02:12:28.593Z,7.28
2019-02-09T02:14:58.402Z,6.80
2019-02-09T02:17:28.221Z,7.05
2019-02-09T02:19:58.094Z,7.45
2019-02-09T02:22:27.935Z,7.75
2019-02-09T02:24:57.785Z,7.23
2019-02-09T02:27:27.644Z,8.53
2019-02-09T02:29:57.435Z,6.62
2019-02-09T02:32:27.217Z,7.15
2019-02-09T02:34:57.005Z,7.17
2019-02-09T02:37:26.849Z,5.95
2019-02-09T02:39:56.672Z,6.47
2019-02-09T02:42:26.489Z,6.42
2019-02-09T02:44:56.337Z,6.53
2019-02-09T02:47:26.091Z,6.42
2019-02-09T02:49:55.873Z,5.78
2019-02-09T02:52:25.689Z,5.83
2019-02-09T02:54:55.542Z,5.53
2019-02-09T02:57:25.357Z,5.28
2019-02-09T02:59:55.155Z,5.53
2019-02-09T03:02:24.996Z,6.22
2019-02-09T03:04:54.803Z,5.08
2019-02-09T03:07:24.600Z,5.08
2019-02-09T03:09:54.454Z,6.10
2019-02-09T03:12:24.259Z,5.40
2019-02-09T03:14:54.060Z,5.20
2019-02-09T03:17:23.889Z,3.80
2019-02-09T03:19:53.713Z,3.70
2019-02-09T03:22:23.496Z,5.10
2019-02-09T03:24:53.442Z,4.20
2019-02-09T03:27:23.222Z,5.17
2019-02-09T03:29:53.024Z,5.40
2019-02-09T03:32:22.941Z,4.80
2019-02-09T03:34:52.770Z,5.72
2019-02-09T03:37:22.625Z,5.95
2019-02-09T03:39:52.436Z,5.45
2019-02-09T03:42:22.316Z,5.60
2019-02-09T03:44:52.173Z,4.50
2019-02-09T03:47:22.161Z,5.70
2019-02-09T03:49:52.070Z,6.05
2019-02-09T03:52:21.985Z,4.70
2019-02-09T03:54:51.784Z,4.12
2019-02-09T03:57:21.713Z,3.70
2019-02-09T03:59:51.525Z,4.25
2019-02-09T04:02:21.314Z,4.78
2019-02-09T04:04:51.115Z,4.35
2019-02-09T04:07:20.945Z,3.90
2019-02-09T04:09:50.733Z,5.67
2019-02-09T04:12:20.522Z,4.90
2019-02-09T04:14:50.402Z,4.20
2019-02-09T04:17:20.197Z,6.08
2019-02-09T04:19:51.063Z,6.05
2019-02-09T04:22:20.893Z,5.28
2019-02-09T04:24:50.729Z,5.58
2019-02-09T04:27:20.653Z,4.35
2019-02-09T04:29:50.446Z,4.65
2019-02-09T04:32:20.414Z,4.97
2019-02-09T04:34:50.210Z,4.22
2019-02-09T04:37:20.177Z,4.10
2019-02-09T04:39:49.931Z,4.83
2019-02-09T04:42:19.728Z,5.73
2019-02-09T04:44:49.488Z,5.40
2019-02-09T04:47:19.316Z,5.00
2019-02-09T04:49:49.191Z,6.75
2019-02-09T04:52:19.049Z,5.33
2019-02-09T04:54:48.923Z,5.25
2019-02-09T04:57:18.694Z,5.58
2019-02-09T04:59:48.616Z,6.80
2019-02-09T05:02:18.455Z,5.87
2019-02-09T05:04:48.280Z,5.97
2019-02-09T05:07:18.093Z,4.12
2019-02-09T05:09:47.850Z,4.62
2019-02-09T05:12:17.702Z,4.75
2019-02-09T05:14:47.520Z,5.28
2019-02-09T05:17:17.333Z,5.92
2019-02-09T05:19:47.150Z,6.08
2019-02-09T05:22:16.952Z,6.08
2019-02-09T05:24:46.786Z,5.17
2019-02-09T05:27:16.551Z,4.60
2019-02-09T05:29:46.361Z,3.62
2019-02-09T05:32:16.177Z,4.62
2019-02-09T05:34:46.061Z,5.22
2019-02-09T05:37:15.965Z,4.53
2019-02-09T05:39:45.906Z,4.37
2019-02-09T05:42:15.794Z,5.53
2019-02-09T05:44:45.720Z,3.25
2019-02-09T05:47:15.533Z,4.60
2019-02-09T05:49:45.528Z,3.37
2019-02-09T05:52:15.335Z,3.02
2019-02-09T05:54:45.237Z,3.20
2019-02-09T05:57:15.030Z,2.65
2019-02-09T05:59:44.865Z,2.42
2019-02-09T06:02:14.750Z,3.30
2019-02-09T06:04:44.723Z,4.50
2019-02-09T06:07:17.414Z,3.00
2019-02-09T06:09:47.384Z,3.45
2019-02-09T06:12:17.250Z,4.73
2019-02-09T06:14:47.090Z,4.25
2019-02-09T06:17:17.027Z,3.93
2019-02-09T06:19:48.475Z,3.75
2019-02-09T06:22:18.332Z,4.95
2019-02-09T06:24:48.355Z,3.50
2019-02-09T06:27:18.203Z,4.15
2019-02-09T06:29:48.085Z,4.42
2019-02-09T06:32:17.981Z,5.30
2019-02-09T06:34:47.802Z,5.83
2019-02-09T06:37:17.749Z,5.75
2019-02-09T06:39:47.622Z,6.33
2019-02-09T06:42:17.521Z,4.03
2019-02-09T06:44:47.369Z,4.33
2019-02-09T06:47:17.160Z,3.90
2019-02-09T06:49:47.086Z,4.37
2019-02-09T06:52:16.841Z,4.58
2019-02-09T06:54:46.962Z,3.60
2019-02-09T06:57:16.786Z,4.75
2019-02-09T06:59:46.784Z,3.65
2019-02-09T07:02:16.657Z,4.37
2019-02-09T07:04:46.445Z,2.98
2019-02-09T07:07:16.245Z,3.40
2019-02-09T07:09:46.017Z,3.60
2019-02-09T07:12:15.845Z,4.10
2019-02-09T07:14:45.665Z,3.72
2019-02-09T07:17:15.592Z,3.33
2019-02-09T07:19:45.383Z,3.83
2019-02-09T07:22:15.203Z,5.37
2019-02-09T07:24:45.012Z,3.87
2019-02-09T07:27:14.990Z,3.27
2019-02-09T07:29:44.932Z,3.92
2019-02-09T07:32:14.734Z,2.90
2019-02-09T07:34:44.629Z,4.80
2019-02-09T07:37:15.242Z,3.60
2019-02-09T07:39:46.402Z,3.50
2019-02-09T07:42:16.419Z,3.62
2019-02-09T07:44:46.878Z,5.05
2019-02-09T07:47:16.732Z,6.33
2019-02-09T07:49:46.518Z,4.03
2019-02-09T07:52:16.458Z,5.50
2019-02-09T07:54:46.360Z,3.77
2019-02-09T07:57:16.180Z,3.50
2019-02-09T07:59:45.970Z,3.07
2019-02-09T08:02:16.760Z,4.12
2019-02-09T08:04:46.676Z,4.40
2019-02-09T08:07:16.575Z,4.90
2019-02-09T08:09:49.544Z,2.77
2019-02-09T08:12:21.846Z,3.90
2019-02-09T08:14:51.875Z,3.87
2019-02-09T08:17:21.685Z,3.20
2019-02-09T08:19:51.505Z,4.58
2019-02-09T08:22:21.301Z,3.85
2019-02-09T08:24:51.138Z,4.55
2019-02-09T08:27:23.541Z,3.87
2019-02-09T08:29:53.721Z,5.17
2019-02-09T08:32:23.606Z,3.90
2019-02-09T08:34:53.601Z,3.42
2019-02-09T08:37:23.486Z,4.95
2019-02-09T08:39:53.382Z,4.53
2019-02-09T08:42:23.281Z,3.40
2019-02-09T08:44:53.233Z,4.20
2019-02-09T08:47:23.060Z,4.00
2019-02-09T08:49:52.975Z,4.10
2019-02-09T08:52:22.809Z,4.20
2019-02-09T08:54:52.674Z,4.58
2019-02-09T08:57:22.491Z,4.23
2019-02-09T08:59:52.362Z,4.03
2019-02-09T09:02:22.291Z,2.90
2019-02-09T09:04:52.090Z,2.85
2019-02-09T09:07:21.900Z,3.00
2019-02-09T09:09:51.697Z,3.52
2019-02-09T09:12:21.513Z,3.17
2019-02-09T09:14:51.350Z,4.75
2019-02-09T09:17:21.286Z,3.83
2019-02-09T09:19:52.078Z,3.60
2019-02-09T09:22:25.270Z,4.00
2019-02-09T09:24:55.143Z,4.55
2019-02-09T09:27:25.562Z,4.12
2019-02-09T09:29:55.367Z,4.72
2019-02-09T09:32:28.657Z,5.35
2019-02-09T09:34:56.830Z,5.83
2019-02-09T09:37:27.775Z,6.62
2019-02-09T09:39:57.908Z,6.05
2019-02-09T09:42:28.830Z,4.65
2019-02-09T09:44:58.919Z,7.28
2019-02-09T09:47:29.079Z,7.30
2019-02-09T09:49:59.310Z,8.85
2019-02-09T09:52:29.531Z,7.73
2019-02-09T09:54:59.548Z,9.55
2019-02-09T09:57:29.774Z,7.85
2019-02-09T09:59:59.997Z,9.35
2019-02-09T10:02:36.392Z,6.37
2019-02-09T10:05:01.560Z,8.10
2019-02-09T10:07:31.527Z,7.47
2019-02-09T10:10:01.510Z,7.25
2019-02-09T10:12:31.403Z,6.65
2019-02-09T10:15:01.308Z,6.92
2019-02-09T10:17:31.248Z,6.75
2019-02-09T10:20:01.502Z,7.22
2019-02-09T10:22:32.637Z,6.17
2019-02-09T10:25:03.574Z,6.15
2019-02-09T10:27:33.527Z,8.88
2019-02-09T10:30:05.337Z,6.62
2019-02-09T10:32:35.263Z,6.03
2019-02-09T10:35:06.119Z,7.03
2019-02-09T10:37:36.008Z,6.60
2019-02-09T10:40:07.376Z,7.10
2019-02-09T10:42:37.231Z,6.95
2019-02-09T10:45:08.574Z,8.23
2019-02-09T10:47:39.277Z,6.83
2019-02-09T10:50:12.008Z,6.63
2019-02-09T10:52:41.901Z,8.05
2019-02-09T10:55:11.920Z,10.50
2019-02-09T10:57:41.817Z,7.53
2019-02-09T11:00:18.627Z,8.90
2019-02-09T11:02:52.297Z,7.12
2019-02-09T11:05:20.294Z,8.40
2019-02-09T11:07:50.261Z,7.60
2019-02-09T11:10:20.822Z,7.87
2019-02-09T11:15:57.665Z,6.45
2019-02-09T11:18:27.590Z,7.83
2019-02-09T11:20:57.422Z,5.58
2019-02-09T11:23:27.381Z,6.53
2019-02-09T11:25:57.290Z,6.20
2019-02-09T11:28:27.124Z,8.43
2019-02-09T11:30:56.947Z,9.15
2019-02-09T11:33:26.944Z,6.50
2019-02-09T11:35:56.847Z,7.78
2019-02-09T11:38:26.671Z,7.67
2019-02-09T11:40:56.539Z,8.88
2019-02-09T11:43:26.502Z,6.33
2019-02-09T11:45:56.335Z,6.22
2019-02-09T11:48:26.266Z,7.08
2019-02-09T11:50:56.266Z,6.05
2019-02-09T11:53:26.153Z,7.37
2019-02-09T11:55:55.966Z,6.85
2019-02-09T11:58:25.921Z,7.87
2019-02-09T12:00:55.810Z,7.45
2019-02-09T12:03:25.742Z,8.73
2019-02-09T12:05:55.539Z,7.62
2019-02-09T12:08:25.669Z,8.10
2019-02-09T12:10:55.491Z,10.65
2019-02-09T12:13:25.319Z,8.00
2019-02-09T12:15:55.238Z,7.78
2019-02-09T12:18:25.174Z,8.00
2019-02-09T12:20:55.093Z,6.70
2019-02-09T12:23:25.091Z,6.95
2019-02-09T12:25:54.870Z,6.75
2019-02-09T12:28:24.828Z,6.08
2019-02-09T12:30:54.721Z,6.60
2019-02-09T12:33:24.578Z,6.30
2019-02-09T12:35:56.319Z,4.95
2019-02-09T12:38:26.211Z,6.62
2019-02-09T12:40:56.045Z,5.25
2019-02-09T12:43:25.886Z,4.53
2019-02-09T12:45:55.763Z,5.75
2019-02-09T12:48:25.707Z,4.20
2019-02-09T12:50:55.565Z,4.03
2019-02-09T12:53:25.495Z,5.47
2019-02-09T12:55:55.322Z,5.35
2019-02-09T12:58:25.255Z,5.35
2019-02-09T13:00:55.116Z,6.05
2019-02-09T13:03:31.385Z,5.33
2019-02-09T13:05:58.758Z,4.53
2019-02-09T13:08:28.671Z,5.25
2019-02-09T13:10:58.546Z,6.33
2019-02-09T13:13:28.358Z,4.65
2019-02-09T13:15:58.335Z,6.80
2019-02-09T13:18:28.264Z,5.67
2019-02-09T13:20:58.171Z,5.30
2019-02-09T13:23:28.086Z,5.78
2019-02-09T13:25:58.237Z,5.25
2019-02-09T13:28:28.386Z,6.33
2019-02-09T13:31:00.009Z,6.85
2019-02-09T13:33:38.631Z,6.97
2019-02-09T13:36:06.925Z,6.17
2019-02-09T13:38:37.078Z,5.78
2019-02-09T13:41:06.882Z,7.97
2019-02-09T13:43:36.840Z,8.15
2019-02-09T13:46:06.730Z,6.97
2019-02-09T13:48:36.622Z,5.08
2019-02-09T13:51:06.543Z,6.08
2019-02-09T13:53:36.438Z,5.20
2019-02-09T13:56:06.346Z,6.42
2019-02-09T13:58:36.201Z,5.53
2019-02-09T14:01:06.371Z,5.47
2019-02-09T14:03:37.202Z,6.20
2019-02-09T14:06:08.514Z,7.08
2019-02-09T14:08:38.521Z,9.05
2019-02-09T14:11:08.396Z,7.00
2019-02-09T14:13:38.326Z,7.20
2019-02-09T14:16:08.551Z,8.13
2019-02-09T14:18:38.671Z,8.33
2019-02-09T14:21:08.573Z,10.18
2019-02-09T14:23:38.423Z,7.72
2019-02-09T14:26:08.411Z,9.03
2019-02-09T14:28:38.221Z,8.30
2019-02-09T14:31:08.181Z,10.53
2019-02-09T14:33:38.150Z,8.23
2019-02-09T14:36:08.111Z,9.28
2019-02-09T14:38:37.965Z,9.25
2019-02-09T14:41:07.897Z,8.00
2019-02-09T14:43:37.741Z,9.30
2019-02-09T14:46:07.616Z,8.40
2019-02-09T14:48:37.545Z,9.45
2019-02-09T14:51:07.329Z,9.80
2019-02-09T14:53:37.239Z,8.60
2019-02-09T14:56:07.082Z,8.33
2019-02-09T14:58:36.942Z,8.25
2019-02-09T15:01:07.035Z,8.40
2019-02-09T15:03:36.982Z,8.98
2019-02-09T15:06:06.856Z,9.05
2019-02-09T15:08:37.411Z,6.87
2019-02-09T15:11:07.636Z,7.73
2019-02-09T15:13:37.523Z,8.83
2019-02-09T15:16:33.570Z,8.23
2019-02-09T15:19:03.577Z,8.78
2019-02-09T15:21:33.494Z,7.40
2019-02-09T15:24:03.412Z,8.70
2019-02-09T15:26:33.410Z,5.60
2019-02-09T15:29:03.393Z,7.33
2019-02-09T15:31:33.261Z,8.13
2019-02-09T15:34:09.965Z,7.50
2019-02-09T15:36:37.411Z,7.03
2019-02-09T15:39:09.290Z,6.60
2019-02-09T15:41:39.350Z,6.92
2019-02-09T15:44:09.325Z,8.30
2019-02-09T15:46:39.569Z,8.35
2019-02-09T15:49:09.644Z,7.60
2019-02-09T15:51:39.596Z,8.80
2019-02-09T15:54:12.610Z,9.90
2019-02-09T15:56:42.696Z,7.40
2019-02-09T15:59:12.714Z,7.55
2019-02-09T16:01:42.738Z,9.27
2019-02-09T16:04:17.682Z,8.45
2019-02-09T16:06:45.339Z,9.05
2019-02-09T16:09:15.234Z,8.25
2019-02-09T16:11:45.156Z,8.70
2019-02-09T16:14:15.084Z,8.80
2019-02-09T16:16:44.933Z,8.00
2019-02-09T16:19:14.842Z,9.80
2019-02-09T16:21:44.810Z,8.43
2019-02-09T16:24:14.769Z,7.25
2019-02-09T16:26:44.706Z,7.47
2019-02-09T16:29:18.620Z,5.58
2019-02-09T16:31:48.678Z,5.97
2019-02-09T16:34:25.168Z,8.83
2019-02-09T16:36:50.249Z,7.40
2019-02-09T16:39:21.807Z,7.20
2019-02-09T16:41:51.831Z,7.50
2019-02-09T16:44:21.933Z,8.05
2019-02-09T16:46:54.636Z,6.40
2019-02-09T16:49:24.558Z,7.20
2019-02-09T16:51:54.535Z,7.65
2019-02-09T16:54:24.484Z,6.20
2019-02-09T16:56:55.397Z,7.22
2019-02-09T16:59:25.438Z,7.05
2019-02-09T17:01:55.530Z,8.60
2019-02-09T17:04:32.917Z,8.25
2019-02-09T17:06:57.032Z,6.22
2019-02-09T17:09:27.031Z,8.30
2019-02-09T17:11:56.966Z,8.63
2019-02-09T17:14:26.826Z,6.80
2019-02-09T17:16:56.641Z,7.70
2019-02-09T17:19:26.572Z,8.78
2019-02-09T17:21:56.429Z,6.97
2019-02-09T17:24:26.453Z,8.18
2019-02-09T17:26:56.382Z,8.28
2019-02-09T17:29:26.205Z,7.33
2019-02-09T17:31:56.153Z,9.65
2019-02-09T17:34:26.073Z,9.73
2019-02-09T17:36:56.049Z,9.50
2019-02-09T17:39:25.868Z,20.20
2019-02-09T17:41:55.755Z,26.85
2019-02-09T17:44:25.714Z,11.97
2019-02-09T17:46:56.996Z,9.48
2019-02-09T17:49:26.792Z,8.38
2019-02-09T17:51:56.612Z,7.17
2019-02-09T17:54:26.478Z,7.67
2019-02-09T17:56:56.297Z,8.28
2019-02-09T17:59:26.304Z,7.08
2019-02-09T18:01:56.222Z,8.03
2019-02-09T18:04:26.060Z,8.25
2019-02-09T18:06:56.635Z,9.43
2019-02-09T18:09:26.581Z,9.70
2019-02-09T18:11:56.484Z,9.10
2019-02-09T18:14:26.389Z,9.55
2019-02-09T18:16:56.378Z,10.75
2019-02-09T18:19:26.274Z,9.45
2019-02-09T18:21:56.206Z,7.37
2019-02-09T18:24:26.074Z,8.80
2019-02-09T18:26:55.869Z,9.45
2019-02-09T18:29:25.758Z,9.17
2019-02-09T18:31:55.660Z,8.83
2019-02-09T18:34:25.586Z,9.00
2019-02-09T18:36:55.448Z,7.42
2019-02-09T18:39:25.258Z,7.85
2019-02-09T18:41:55.118Z,9.15
2019-02-09T18:44:24.950Z,10.20
2019-02-09T18:46:54.880Z,9.88
2019-02-09T18:49:24.782Z,7.78
2019-02-09T18:51:54.687Z,8.90
2019-02-09T18:54:24.493Z,8.60
2019-02-09T18:56:55.421Z,10.30
2019-02-09T18:59:25.351Z,8.10
2019-02-09T19:01:55.650Z,7.95
2019-02-09T19:04:25.624Z,8.93
2019-02-09T19:06:57.003Z,8.20
2019-02-09T19:09:28.516Z,10.28
2019-02-09T19:11:58.438Z,7.42
2019-02-09T19:14:29.315Z,7.55
2019-02-09T19:16:59.464Z,9.33
2019-02-09T19:19:29.395Z,7.50
2019-02-09T19:22:00.014Z,9.15
2019-02-09T19:24:30.732Z,9.08
2019-02-09T19:27:01.381Z,11.08
2019-02-09T19:29:31.836Z,9.53
2019-02-09T19:32:01.807Z,7.47
2019-02-09T19:34:32.792Z,6.72
2019-02-09T19:37:08.699Z,7.83
2019-02-09T19:39:39.133Z,7.20
2019-02-09T19:42:09.090Z,8.13
2019-02-09T19:44:40.068Z,7.60
2019-02-09T19:47:10.004Z,9.88
2019-02-09T19:49:41.375Z,10.88
2019-02-09T19:52:11.365Z,8.85
2019-02-09T19:54:41.914Z,8.10
2019-02-09T19:57:12.232Z,8.43
2019-02-09T19:59:42.130Z,8.83
2019-02-09T20:02:12.385Z,8.03
2019-02-09T20:04:42.312Z,9.53
2019-02-09T20:07:13.541Z,10.75
2019-02-09T20:09:43.695Z,11.55
2019-02-09T20:12:14.034Z,9.75
2019-02-09T20:14:43.961Z,9.58
2019-02-09T20:17:13.851Z,10.48
2019-02-09T20:19:44.403Z,10.15
2019-02-09T20:22:14.407Z,9.05
2019-02-09T20:24:46.846Z,9.68
2019-02-09T20:27:17.377Z,12.03
2019-02-09T20:29:47.949Z,10.48
2019-02-09T20:32:18.733Z,9.85
2019-02-09T20:34:49.061Z,10.50
2019-02-09T20:37:18.997Z,9.50
2019-02-09T20:39:49.372Z,9.33
2019-02-09T20:42:19.542Z,11.00
2019-02-09T20:44:50.206Z,9.50
2019-02-09T20:47:20.609Z,9.03
2019-02-09T20:49:52.441Z,9.13
2019-02-09T20:52:22.518Z,10.08
2019-02-09T20:54:52.956Z,10.03
2019-02-09T20:57:23.198Z,11.47
2019-02-09T20:59:53.356Z,12.82
2019-02-09T21:02:23.473Z,12.65
2019-02-09T21:05:00.733Z,10.05
2019-02-09T21:07:31.339Z,11.88
2019-02-09T21:10:01.517Z,11.97
2019-02-09T21:12:32.634Z,12.85
2019-02-09T21:15:02.586Z,12.20
2019-02-09T21:17:32.691Z,13.18
2019-02-09T21:20:02.858Z,12.88
2019-02-09T21:22:33.111Z,11.95
2019-02-09T21:25:03.470Z,12.68
2019-02-09T21:27:33.967Z,14.15
2019-02-09T21:30:05.220Z,13.45
2019-02-09T21:32:40.267Z,13.22
2019-02-09T21:35:08.740Z,12.53
2019-02-09T21:37:38.640Z,17.98
2019-02-09T21:40:12.392Z,14.00
2019-02-09T21:42:43.296Z,10.03
2019-02-09T21:45:17.699Z,12.58
2019-02-09T21:47:48.164Z,15.28
2019-02-09T21:50:21.421Z,13.62
2019-02-09T21:52:51.482Z,14.47
2019-02-09T21:55:21.759Z,14.13
2019-02-09T21:57:52.780Z,11.60
2019-02-09T22:00:34.056Z,12.70
2019-02-09T22:03:04.876Z,13.80
2019-02-09T22:05:34.712Z,14.87
2019-02-09T22:08:05.134Z,14.28
2019-02-09T22:10:35.041Z,14.55
2019-02-09T22:13:04.997Z,14.65
2019-02-09T22:15:38.726Z,12.17
2019-02-09T22:18:06.936Z,15.90
2019-02-09T22:20:36.789Z,14.68
2019-02-09T22:23:06.833Z,13.78
2019-02-09T22:25:36.710Z,13.43
2019-02-09T22:28:07.913Z,14.58
2019-02-09T22:30:37.850Z,14.65
2019-02-09T22:33:08.297Z,13.03
2019-02-09T22:35:38.194Z,13.25
2019-02-09T22:38:08.136Z,14.70
2019-02-09T22:40:38.524Z,16.48
2019-02-09T22:43:09.005Z,16.55
2019-02-09T22:45:39.066Z,13.72
2019-02-09T22:48:09.962Z,16.37
2019-02-09T22:50:42.059Z,12.95
2019-02-09T22:53:12.022Z,11.83
2019-02-09T22:55:42.915Z,14.85
2019-02-09T22:58:13.917Z,14.73
2019-02-09T23:01:22.040Z,12.60
2019-02-09T23:03:59.839Z,15.48
2019-02-09T23:06:52.527Z,11.53
2019-02-09T23:09:24.814Z,15.90
2019-02-09T23:11:54.753Z,10.45
2019-02-09T23:14:24.730Z,11.55
2019-02-09T23:16:54.698Z,15.15
2019-02-09T23:19:27.699Z,12.28
2019-02-09T23:21:57.666Z,11.53
2019-02-09T23:24:27.514Z,13.25
2019-02-09T23:26:57.447Z,11.53
2019-02-09T23:29:28.458Z,11.05
2019-02-09T23:31:58.223Z,12.35
2019-02-09T23:34:28.055Z,10.80
2019-02-09T23:36:57.927Z,10.28
2019-02-09T23:39:27.780Z,11.75
2019-02-09T23:41:57.695Z,10.03
2019-02-09T23:44:27.633Z,12.75
2019-02-09T23:46:57.504Z,9.68
2019-02-09T23:49:27.409Z,12.33
2019-02-09T23:51:57.304Z,10.50
2019-02-09T23:54:27.142Z,11.00
2019-02-09T23:56:56.986Z,14.40
2019-02-09T23:59:26.865Z,11.63
